sensor_id;sensor_type;location;lat;lon;timestamp;temperature;humidity
57466;DHT22;67033;44.984;20.068;2023-02-01T08:43:42;3.60;99.90
57466;DHT22;67033;44.984;20.068;2023-02-01T11:12:37;6.10;99.90
57466;DHT22;67033;44.984;20.068;2023-02-01T11:15:18;10.50;99.90
57466;DHT22;67033;44.984;20.068;2023-02-01T11:17:47;10.50;92.60
57466;DHT22;67033;44.984;20.068;2023-02-01T11:20:20;10.40;93.70
57466;DHT22;67033;44.984;20.068;2023-02-01T11:22:56;10.30;91.70
57466;DHT22;67033;44.984;20.068;2023-02-01T11:25:23;10.30;94.70
57466;DHT22;67033;44.984;20.068;2023-02-01T11:27:50;10.40;93.30
57466;DHT22;67033;44.984;20.068;2023-02-01T11:30:20;10.30;91.50
57466;DHT22;67033;44.984;20.068;2023-02-01T11:32:51;10.30;90.60
57466;DHT22;67033;44.984;20.068;2023-02-01T11:35:20;10.30;93.10
57466;DHT22;67033;44.984;20.068;2023-02-01T11:37:54;10.30;90.80
57466;DHT22;67033;44.984;20.068;2023-02-01T11:40:25;10.20;92.20
57466;DHT22;67033;44.984;20.068;2023-02-01T11:43:00;10.10;93.70
57466;DHT22;67033;44.984;20.068;2023-02-01T11:45:33;10.20;91.80
57466;DHT22;67033;44.984;20.068;2023-02-01T11:48:08;10.20;91.70
57466;DHT22;67033;44.984;20.068;2023-02-01T11:50:42;10.40;87.50
57466;DHT22;67033;44.984;20.068;2023-02-01T12:06:35;11.00;87.90
57466;DHT22;67033;44.984;20.068;2023-02-01T12:17:40;11.00;84.00
57466;DHT22;67033;44.984;20.068;2023-02-01T12:42:24;11.20;77.00
57466;DHT22;67033;44.984;20.068;2023-02-01T12:44:55;11.10;73.30
57466;DHT22;67033;44.984;20.068;2023-02-01T12:57:37;11.10;71.70
57466;DHT22;67033;44.984;20.068;2023-02-01T13:05:56;11.40;75.90
57466;DHT22;67033;44.984;20.068;2023-02-01T13:11:19;11.50;74.60
57466;DHT22;67033;44.984;20.068;2023-02-01T13:19:00;11.30;73.60
57466;DHT22;67033;44.984;20.068;2023-02-01T13:21:31;11.40;74.90
57466;DHT22;67033;44.984;20.068;2023-02-01T13:46:57;10.80;77.40
57466;DHT22;67033;44.984;20.068;2023-02-01T13:49:33;10.70;77.50
57466;DHT22;67033;44.984;20.068;2023-02-01T13:52:02;10.50;76.00
57466;DHT22;67033;44.984;20.068;2023-02-01T13:54:39;10.70;78.90
57466;DHT22;67033;44.984;20.068;2023-02-01T13:57:37;10.70;78.90
57466;DHT22;67033;44.984;20.068;2023-02-01T14:00:31;10.70;81.30
57466;DHT22;67033;44.984;20.068;2023-02-01T14:13:37;10.50;80.60
57466;DHT22;67033;44.984;20.068;2023-02-01T14:23:44;10.30;84.00
57466;DHT22;67033;44.984;20.068;2023-02-01T14:26:11;10.20;85.20
57466;DHT22;67033;44.984;20.068;2023-02-01T14:29:33;10.20;85.10
57466;DHT22;67033;44.984;20.068;2023-02-01T14:31:46;10.20;87.00
57466;DHT22;67033;44.984;20.068;2023-02-01T14:34:49;10.10;89.40
57466;DHT22;67033;44.984;20.068;2023-02-01T14:42:21;9.90;92.50
57466;DHT22;67033;44.984;20.068;2023-02-01T14:44:51;9.90;92.00
57466;DHT22;67033;44.984;20.068;2023-02-01T14:52:36;9.90;99.90
57466;DHT22;67033;44.984;20.068;2023-02-01T15:04:10;9.60;99.90
57466;DHT22;67033;44.984;20.068;2023-02-01T15:06:45;9.50;99.90
57466;DHT22;67033;44.984;20.068;2023-02-01T15:21:47;9.40;99.90
57466;DHT22;67033;44.984;20.068;2023-02-01T15:24:25;9.10;99.90
57466;DHT22;67033;44.984;20.068;2023-02-01T15:26:53;9.10;99.90
57466;DHT22;67033;44.984;20.068;2023-02-01T15:29:21;9.10;99.90
57466;DHT22;67033;44.984;20.068;2023-02-01T15:31:50;9.00;99.90
57466;DHT22;67033;44.984;20.068;2023-02-01T15:34:17;9.00;99.90
57466;DHT22;67033;44.984;20.068;2023-02-01T15:36:44;8.90;99.90
57466;DHT22;67033;44.984;20.068;2023-02-01T15:39:22;8.90;99.90
57466;DHT22;67033;44.984;20.068;2023-02-01T15:42:08;8.80;99.90
57466;DHT22;67033;44.984;20.068;2023-02-01T15:44:40;8.90;99.90
57466;DHT22;67033;44.984;20.068;2023-02-01T15:47:19;8.80;99.90
57466;DHT22;67033;44.984;20.068;2023-02-01T15:49:52;8.80;99.90
57466;DHT22;67033;44.984;20.068;2023-02-01T15:52:37;8.60;99.90
57466;DHT22;67033;44.984;20.068;2023-02-01T15:55:07;8.60;99.90
57466;DHT22;67033;44.984;20.068;2023-02-01T15:57:36;8.50;99.90
57466;DHT22;67033;44.984;20.068;2023-02-01T16:00:24;8.50;99.90
57466;DHT22;67033;44.984;20.068;2023-02-01T16:02:55;8.40;99.90
57466;DHT22;67033;44.984;20.068;2023-02-01T16:05:43;8.40;99.90
57466;DHT22;67033;44.984;20.068;2023-02-01T16:08:21;8.40;99.90
57466;DHT22;67033;44.984;20.068;2023-02-01T16:10:54;8.40;99.90
57466;DHT22;67033;44.984;20.068;2023-02-01T16:13:20;8.30;99.90
57466;DHT22;67033;44.984;20.068;2023-02-01T16:15:47;8.40;99.90
57466;DHT22;67033;44.984;20.068;2023-02-01T16:18:16;8.30;99.90
57466;DHT22;67033;44.984;20.068;2023-02-01T16:20:44;8.20;99.90
57466;DHT22;67033;44.984;20.068;2023-02-01T16:23:10;8.10;99.90
57466;DHT22;67033;44.984;20.068;2023-02-01T16:25:37;8.00;99.90
57466;DHT22;67033;44.984;20.068;2023-02-01T16:28:04;8.00;99.90
57466;DHT22;67033;44.984;20.068;2023-02-01T16:30:34;7.80;99.90
57466;DHT22;67033;44.984;20.068;2023-02-01T16:33:01;7.90;99.90
57466;DHT22;67033;44.984;20.068;2023-02-01T16:35:36;7.80;99.90
57466;DHT22;67033;44.984;20.068;2023-02-01T16:38:07;7.80;99.90
57466;DHT22;67033;44.984;20.068;2023-02-01T16:40:39;7.80;99.90
57466;DHT22;67033;44.984;20.068;2023-02-01T16:43:18;7.80;99.90
57466;DHT22;67033;44.984;20.068;2023-02-01T16:45:46;7.80;99.90
57466;DHT22;67033;44.984;20.068;2023-02-01T16:48:31;7.80;99.90
57466;DHT22;67033;44.984;20.068;2023-02-01T16:51:02;7.70;99.90
57466;DHT22;67033;44.984;20.068;2023-02-01T16:53:31;7.70;99.90
57466;DHT22;67033;44.984;20.068;2023-02-01T16:55:57;7.80;99.90
57466;DHT22;67033;44.984;20.068;2023-02-01T16:58:25;7.60;99.90
57466;DHT22;67033;44.984;20.068;2023-02-01T17:00:54;7.60;99.90
57466;DHT22;67033;44.984;20.068;2023-02-01T17:03:21;7.60;99.90
57466;DHT22;67033;44.984;20.068;2023-02-01T17:05:50;7.60;99.90
57466;DHT22;67033;44.984;20.068;2023-02-01T17:08:25;7.60;99.90
57466;DHT22;67033;44.984;20.068;2023-02-01T17:10:56;7.50;99.90
57466;DHT22;67033;44.984;20.068;2023-02-01T17:20:45;7.40;99.90
57466;DHT22;67033;44.984;20.068;2023-02-01T18:19:51;6.70;99.90
57466;DHT22;67033;44.984;20.068;2023-02-01T18:24:46;6.20;99.90
57466;DHT22;67033;44.984;20.068;2023-02-01T18:27:12;6.20;99.90
57466;DHT22;67033;44.984;20.068;2023-02-01T18:29:38;6.10;99.90
57466;DHT22;67033;44.984;20.068;2023-02-01T18:32:03;6.20;99.90
57466;DHT22;67033;44.984;20.068;2023-02-01T18:36:56;6.10;99.90
57466;DHT22;67033;44.984;20.068;2023-02-01T18:39:21;6.10;99.90
57466;DHT22;67033;44.984;20.068;2023-02-01T18:44:16;6.10;99.90
57466;DHT22;67033;44.984;20.068;2023-02-01T18:46:42;6.10;99.90
57466;DHT22;67033;44.984;20.068;2023-02-01T18:49:08;6.10;99.90
57466;DHT22;67033;44.984;20.068;2023-02-01T18:51:36;6.10;99.90
57466;DHT22;67033;44.984;20.068;2023-02-01T18:54:03;6.10;99.90
57466;DHT22;67033;44.984;20.068;2023-02-01T18:56:29;6.10;99.90
57466;DHT22;67033;44.984;20.068;2023-02-01T18:58:54;6.00;99.90
57466;DHT22;67033;44.984;20.068;2023-02-01T19:01:22;6.10;99.90
57466;DHT22;67033;44.984;20.068;2023-02-01T19:03:49;6.10;99.90
57466;DHT22;67033;44.984;20.068;2023-02-01T19:06:15;6.20;99.90
57466;DHT22;67033;44.984;20.068;2023-02-01T19:08:44;6.10;99.90
57466;DHT22;67033;44.984;20.068;2023-02-01T19:11:11;6.10;99.90
57466;DHT22;67033;44.984;20.068;2023-02-01T19:13:38;6.10;99.90
57466;DHT22;67033;44.984;20.068;2023-02-01T19:16:09;6.00;99.90
57466;DHT22;67033;44.984;20.068;2023-02-01T19:18:35;6.10;99.90
57466;DHT22;67033;44.984;20.068;2023-02-01T19:21:08;6.20;99.90
57466;DHT22;67033;44.984;20.068;2023-02-01T19:23:34;6.30;99.90
57466;DHT22;67033;44.984;20.068;2023-02-01T19:26:00;6.30;99.90
57466;DHT22;67033;44.984;20.068;2023-02-01T19:28:26;6.30;99.90
57466;DHT22;67033;44.984;20.068;2023-02-01T19:31:02;6.40;99.90
57466;DHT22;67033;44.984;20.068;2023-02-01T19:33:28;6.50;99.90
57466;DHT22;67033;44.984;20.068;2023-02-01T19:36:01;6.50;99.90
57466;DHT22;67033;44.984;20.068;2023-02-01T19:38:31;6.60;99.90
57466;DHT22;67033;44.984;20.068;2023-02-01T19:40:57;6.50;99.90
57466;DHT22;67033;44.984;20.068;2023-02-01T19:43:23;6.40;99.90
57466;DHT22;67033;44.984;20.068;2023-02-01T19:45:49;6.30;99.90
57466;DHT22;67033;44.984;20.068;2023-02-01T19:48:15;6.20;99.90
57466;DHT22;67033;44.984;20.068;2023-02-01T19:50:43;6.20;99.90
57466;DHT22;67033;44.984;20.068;2023-02-01T19:53:10;6.20;99.90
57466;DHT22;67033;44.984;20.068;2023-02-01T19:55:36;6.20;99.90
57466;DHT22;67033;44.984;20.068;2023-02-01T19:58:02;6.30;99.90
57466;DHT22;67033;44.984;20.068;2023-02-01T20:00:30;6.40;99.90
57466;DHT22;67033;44.984;20.068;2023-02-01T20:17:38;6.00;99.90
57466;DHT22;67033;44.984;20.068;2023-02-01T20:20:04;6.00;99.90
57466;DHT22;67033;44.984;20.068;2023-02-01T20:22:30;6.00;99.90
57466;DHT22;67033;44.984;20.068;2023-02-01T20:24:56;6.00;99.90
57466;DHT22;67033;44.984;20.068;2023-02-01T20:27:26;6.00;99.90
57466;DHT22;67033;44.984;20.068;2023-02-01T20:29:52;6.10;99.90
57466;DHT22;67033;44.984;20.068;2023-02-01T20:32:18;6.00;99.90
57466;DHT22;67033;44.984;20.068;2023-02-01T20:34:44;6.00;99.90
57466;DHT22;67033;44.984;20.068;2023-02-01T20:37:10;6.00;99.90
57466;DHT22;67033;44.984;20.068;2023-02-01T20:39:36;6.00;99.90
57466;DHT22;67033;44.984;20.068;2023-02-01T20:42:02;6.00;99.90
57466;DHT22;67033;44.984;20.068;2023-02-01T20:44:27;5.90;99.90
57466;DHT22;67033;44.984;20.068;2023-02-01T20:46:53;5.90;99.90
57466;DHT22;67033;44.984;20.068;2023-02-01T20:49:19;5.70;99.90
57466;DHT22;67033;44.984;20.068;2023-02-01T20:51:45;5.70;99.90
57466;DHT22;67033;44.984;20.068;2023-02-01T20:54:11;5.80;99.90
57466;DHT22;67033;44.984;20.068;2023-02-01T20:56:36;5.80;99.90
57466;DHT22;67033;44.984;20.068;2023-02-01T20:59:03;5.90;99.90
57466;DHT22;67033;44.984;20.068;2023-02-01T21:01:35;5.80;99.90
57466;DHT22;67033;44.984;20.068;2023-02-01T21:04:02;5.70;99.90
57466;DHT22;67033;44.984;20.068;2023-02-01T21:06:28;5.50;99.90
57466;DHT22;67033;44.984;20.068;2023-02-01T21:33:36;5.50;99.90
57466;DHT22;67033;44.984;20.068;2023-02-01T21:40:58;4.90;99.90
57466;DHT22;67033;44.984;20.068;2023-02-01T21:43:42;4.90;99.90
57466;DHT22;67033;44.984;20.068;2023-02-01T21:48:34;4.80;99.90
57466;DHT22;67033;44.984;20.068;2023-02-01T21:53:29;4.80;99.90
57466;DHT22;67033;44.984;20.068;2023-02-01T21:55:54;4.70;99.90
57466;DHT22;67033;44.984;20.068;2023-02-01T21:58:20;4.80;99.90
57466;DHT22;67033;44.984;20.068;2023-02-01T22:00:46;4.60;99.90
57466;DHT22;67033;44.984;20.068;2023-02-01T22:03:12;4.60;99.90
57466;DHT22;67033;44.984;20.068;2023-02-01T22:05:39;4.60;99.90
57466;DHT22;67033;44.984;20.068;2023-02-01T22:08:05;4.50;99.90
57466;DHT22;67033;44.984;20.068;2023-02-01T22:10:30;4.50;99.90
57466;DHT22;67033;44.984;20.068;2023-02-01T22:12:56;4.50;99.90
57466;DHT22;67033;44.984;20.068;2023-02-01T22:15:22;4.50;99.90
57466;DHT22;67033;44.984;20.068;2023-02-01T22:17:49;4.50;99.90
57466;DHT22;67033;44.984;20.068;2023-02-01T22:20:15;4.40;99.90
57466;DHT22;67033;44.984;20.068;2023-02-01T22:22:40;4.40;99.90
57466;DHT22;67033;44.984;20.068;2023-02-01T22:25:06;4.50;99.90
57466;DHT22;67033;44.984;20.068;2023-02-01T22:27:34;4.50;99.90
57466;DHT22;67033;44.984;20.068;2023-02-01T22:29:59;4.60;99.90
57466;DHT22;67033;44.984;20.068;2023-02-01T22:32:26;4.50;99.90
57466;DHT22;67033;44.984;20.068;2023-02-01T22:34:51;4.40;99.90
57466;DHT22;67033;44.984;20.068;2023-02-01T22:37:18;4.50;99.90
57466;DHT22;67033;44.984;20.068;2023-02-01T22:39:43;4.50;99.90
57466;DHT22;67033;44.984;20.068;2023-02-01T22:42:09;4.40;99.90
57466;DHT22;67033;44.984;20.068;2023-02-01T22:44:35;4.40;99.90
57466;DHT22;67033;44.984;20.068;2023-02-01T22:47:01;4.40;99.90
57466;DHT22;67033;44.984;20.068;2023-02-01T22:49:27;4.30;99.90
57466;DHT22;67033;44.984;20.068;2023-02-01T22:51:52;4.40;99.90
57466;DHT22;67033;44.984;20.068;2023-02-01T22:54:19;4.30;99.90
57466;DHT22;67033;44.984;20.068;2023-02-01T22:56:46;4.30;99.90
57466;DHT22;67033;44.984;20.068;2023-02-01T22:59:13;4.30;99.90
57466;DHT22;67033;44.984;20.068;2023-02-01T23:01:39;4.40;99.90
57466;DHT22;67033;44.984;20.068;2023-02-01T23:04:06;4.30;99.90
57466;DHT22;67033;44.984;20.068;2023-02-01T23:06:34;4.40;99.90
57466;DHT22;67033;44.984;20.068;2023-02-01T23:09:05;4.40;99.90
57466;DHT22;67033;44.984;20.068;2023-02-01T23:11:36;4.30;99.90
57466;DHT22;67033;44.984;20.068;2023-02-01T23:14:02;4.10;99.90
57466;DHT22;67033;44.984;20.068;2023-02-01T23:16:28;4.00;99.90
57466;DHT22;67033;44.984;20.068;2023-02-01T23:18:54;4.20;99.90
57466;DHT22;67033;44.984;20.068;2023-02-01T23:21:21;4.20;99.90
57466;DHT22;67033;44.984;20.068;2023-02-01T23:23:50;4.10;99.90
57466;DHT22;67033;44.984;20.068;2023-02-01T23:26:17;4.10;99.90
57466;DHT22;67033;44.984;20.068;2023-02-01T23:28:44;4.10;99.90
57466;DHT22;67033;44.984;20.068;2023-02-01T23:31:12;4.10;99.90
57466;DHT22;67033;44.984;20.068;2023-02-01T23:33:38;4.20;99.90
57466;DHT22;67033;44.984;20.068;2023-02-01T23:36:06;4.20;99.90
57466;DHT22;67033;44.984;20.068;2023-02-01T23:38:33;4.40;99.90
57466;DHT22;67033;44.984;20.068;2023-02-01T23:41:04;4.30;99.90
57466;DHT22;67033;44.984;20.068;2023-02-01T23:43:30;4.40;99.90
57466;DHT22;67033;44.984;20.068;2023-02-01T23:46:15;4.40;99.90
57466;DHT22;67033;44.984;20.068;2023-02-01T23:48:43;4.50;99.90
57466;DHT22;67033;44.984;20.068;2023-02-01T23:51:09;4.50;99.90
57466;DHT22;67033;44.984;20.068;2023-02-01T23:53:35;4.60;99.90
57466;DHT22;67033;44.984;20.068;2023-02-01T23:56:01;4.50;99.90
57466;DHT22;67033;44.984;20.068;2023-02-01T23:58:27;4.50;99.90
